createdAt,value
2017-11-07T00:01:42.512Z,27.17
2017-11-07T00:04:10.078Z,26.02
2017-11-07T00:06:37.670Z,25.83
2017-11-07T00:09:05.231Z,28.98
2017-11-07T00:11:34.004Z,27.27
2017-11-07T00:14:01.576Z,28.05
2017-11-07T00:16:29.332Z,25.70
2017-11-07T00:18:56.913Z,25.37
2017-11-07T00:21:24.483Z,22.83
2017-11-07T00:23:52.046Z,24.23
2017-11-07T00:26:19.643Z,25.25
2017-11-07T00:28:47.984Z,23.23
2017-11-07T00:31:15.576Z,23.70
2017-11-07T00:33:43.160Z,26.00
2017-11-07T00:36:10.712Z,24.08
2017-11-07T00:38:38.298Z,23.60
2017-11-07T00:41:06.100Z,23.12
2017-11-07T00:43:34.542Z,26.90
2017-11-07T00:46:02.138Z,24.25
2017-11-07T00:48:29.699Z,23.80
2017-11-07T00:50:57.275Z,27.25
2017-11-07T00:53:25.633Z,31.50
2017-11-07T00:55:53.225Z,29.42
2017-11-07T00:58:21.564Z,25.92
2017-11-07T01:00:49.137Z,25.77
2017-11-07T01:03:16.746Z,23.73
2017-11-07T01:05:44.326Z,21.60
2017-11-07T01:08:11.908Z,23.85
2017-11-07T01:10:39.474Z,22.55
2017-11-07T01:13:07.086Z,19.92
2017-11-07T01:15:34.691Z,22.20
2017-11-07T01:18:02.251Z,22.33
2017-11-07T01:20:29.839Z,19.80
2017-11-07T01:22:57.422Z,21.12
2017-11-07T01:25:25.765Z,21.20
2017-11-07T01:27:53.352Z,21.80
2017-11-07T01:30:21.682Z,21.70
2017-11-07T01:32:49.231Z,21.92
2017-11-07T01:35:16.818Z,21.05
2017-11-07T01:37:44.374Z,19.58
2017-11-07T01:40:11.941Z,21.35
2017-11-07T01:42:39.744Z,21.65
2017-11-07T01:45:07.303Z,21.73
2017-11-07T01:47:34.904Z,21.48
2017-11-07T01:50:02.469Z,21.37
2017-11-07T01:52:30.038Z,22.30
2017-11-07T01:54:57.590Z,24.23
2017-11-07T01:57:25.202Z,25.52
2017-11-07T01:59:52.751Z,22.05
2017-11-07T02:02:20.326Z,23.12
2017-11-07T02:04:47.884Z,20.85
2017-11-07T02:07:15.457Z,20.88
2017-11-07T02:09:43.066Z,21.85
2017-11-07T02:12:10.697Z,22.00
2017-11-07T02:14:39.033Z,20.92
2017-11-07T02:17:06.608Z,21.52
2017-11-07T02:19:34.195Z,22.17
2017-11-07T02:22:02.538Z,19.30
2017-11-07T02:24:30.093Z,20.25
2017-11-07T02:26:57.665Z,21.58
2017-11-07T02:29:25.214Z,20.08
2017-11-07T02:31:53.058Z,22.80
2017-11-07T02:34:20.626Z,21.37
2017-11-07T02:36:48.396Z,21.55
2017-11-07T02:39:15.947Z,21.00
2017-11-07T02:41:43.515Z,23.25
2017-11-07T02:44:11.138Z,21.37
2017-11-07T02:46:39.460Z,20.85
2017-11-07T02:49:07.036Z,22.50
2017-11-07T02:51:34.601Z,20.20
2017-11-07T02:54:02.179Z,23.35
2017-11-07T02:56:29.753Z,21.25
2017-11-07T02:58:57.305Z,20.27
2017-11-07T03:01:24.927Z,19.65
2017-11-07T03:03:52.489Z,22.75
2017-11-07T03:06:20.067Z,21.55
2017-11-07T03:08:47.782Z,20.12
2017-11-07T03:11:15.834Z,19.67
2017-11-07T03:13:43.408Z,19.25
2017-11-07T03:16:11.750Z,19.12
2017-11-07T03:18:39.521Z,19.23
2017-11-07T03:21:07.083Z,19.67
2017-11-07T03:23:34.665Z,19.35
2017-11-07T03:26:02.240Z,20.02
2017-11-07T03:28:29.801Z,18.83
2017-11-07T03:30:58.135Z,17.52
2017-11-07T03:33:25.728Z,17.60
2017-11-07T03:35:53.289Z,18.58
2017-11-07T03:38:20.871Z,19.65
2017-11-07T03:40:49.187Z,19.90
2017-11-07T03:43:16.768Z,19.83
2017-11-07T03:45:44.358Z,17.45
2017-11-07T03:48:12.734Z,18.40
2017-11-07T03:50:40.341Z,17.70
2017-11-07T03:53:07.949Z,18.05
2017-11-07T03:55:36.295Z,17.02
2017-11-07T03:58:04.007Z,17.23
2017-11-07T04:00:32.357Z,18.17
2017-11-07T04:02:59.906Z,16.92
2017-11-07T04:05:27.497Z,17.95
2017-11-07T04:07:55.132Z,18.10
2017-11-07T04:10:22.708Z,16.45
2017-11-07T04:12:50.306Z,15.68
2017-11-07T04:15:18.709Z,19.83
2017-11-07T04:17:46.294Z,18.52
2017-11-07T04:20:13.853Z,16.45
2017-11-07T04:22:41.610Z,18.42
2017-11-07T04:25:09.168Z,22.23
2017-11-07T04:27:36.762Z,20.05
2017-11-07T04:30:04.334Z,17.55
2017-11-07T04:32:31.902Z,19.85
2017-11-07T04:34:59.450Z,16.50
2017-11-07T04:37:27.013Z,19.27
2017-11-07T04:39:54.588Z,20.20
2017-11-07T04:42:22.148Z,17.50
2017-11-07T04:44:49.721Z,16.65
2017-11-07T04:47:17.320Z,17.40
2017-11-07T04:49:44.983Z,16.02
2017-11-07T04:52:12.561Z,16.42
2017-11-07T04:54:40.127Z,16.87
2017-11-07T04:57:07.729Z,16.65
2017-11-07T04:59:36.049Z,16.02
2017-11-07T05:02:03.614Z,16.58
2017-11-07T05:04:31.179Z,16.15
2017-11-07T05:06:58.797Z,15.05
2017-11-07T05:09:27.119Z,14.68
2017-11-07T05:11:54.706Z,14.65
2017-11-07T05:14:22.282Z,13.30
2017-11-07T05:16:49.826Z,15.30
2017-11-07T05:19:17.663Z,13.32
2017-11-07T05:21:45.298Z,13.60
2017-11-07T05:24:13.715Z,15.45
2017-11-07T05:26:41.282Z,14.02
2017-11-07T05:29:08.873Z,15.00
2017-11-07T05:31:36.430Z,13.65
2017-11-07T05:34:04.025Z,14.77
2017-11-07T05:36:31.619Z,16.87
2017-11-07T05:38:59.213Z,15.98
2017-11-07T05:41:26.960Z,15.65
2017-11-07T05:43:54.531Z,18.37
2017-11-07T05:46:22.103Z,16.95
2017-11-07T05:48:49.681Z,17.40
2017-11-07T05:51:17.256Z,17.48
2017-11-07T05:53:45.605Z,18.77
2017-11-07T05:56:13.180Z,17.75
2017-11-07T05:58:40.749Z,18.35
2017-11-07T06:01:09.072Z,18.00
2017-11-07T06:03:36.652Z,17.87
2017-11-07T06:06:04.380Z,20.48
2017-11-07T06:08:31.950Z,17.30
2017-11-07T06:10:59.507Z,16.90
2017-11-07T06:13:27.820Z,15.75
2017-11-07T06:15:55.381Z,18.42
2017-11-07T06:18:22.954Z,17.50
2017-11-07T06:20:50.527Z,19.95
2017-11-07T06:23:18.083Z,16.62
2017-11-07T06:25:45.694Z,21.48
2017-11-07T06:28:13.275Z,17.50
2017-11-07T06:30:40.901Z,18.73
2017-11-07T06:33:09.266Z,18.45
2017-11-07T06:35:36.836Z,18.52
2017-11-07T06:38:05.287Z,15.70
2017-11-07T06:40:33.017Z,16.42
2017-11-07T06:43:00.583Z,13.98
2017-11-07T06:45:28.142Z,19.35
2017-11-07T06:47:55.734Z,15.13
2017-11-07T06:50:23.283Z,15.75
2017-11-07T06:52:50.921Z,13.45
2017-11-07T06:55:18.530Z,15.48
2017-11-07T06:57:46.102Z,15.50
2017-11-07T07:00:13.654Z,18.30
2017-11-07T07:02:41.260Z,20.37
2017-11-07T07:05:08.854Z,18.75
2017-11-07T07:07:36.543Z,20.17
2017-11-07T07:10:04.173Z,18.65
2017-11-07T07:12:31.756Z,19.27
2017-11-07T07:14:59.402Z,20.27
2017-11-07T07:17:26.987Z,18.95
2017-11-07T07:19:54.561Z,18.15
2017-11-07T07:22:22.142Z,17.83
2017-11-07T07:24:50.552Z,22.52
2017-11-07T07:27:18.194Z,20.75
2017-11-07T07:29:46.506Z,21.87
2017-11-07T07:32:14.081Z,21.10
2017-11-07T07:34:41.646Z,20.52
2017-11-07T07:37:09.256Z,20.23
2017-11-07T07:39:37.578Z,21.00
2017-11-07T07:42:05.156Z,19.35
2017-11-07T07:44:32.804Z,20.98
2017-11-07T07:47:00.375Z,19.15
2017-11-07T07:49:27.964Z,18.23
2017-11-07T07:52:14.077Z,19.95
2017-11-07T07:54:42.398Z,21.08
2017-11-07T07:57:09.969Z,19.27
2017-11-07T07:59:37.547Z,19.73
2017-11-07T08:02:05.119Z,18.02
2017-11-07T08:04:32.729Z,16.25
2017-11-07T08:07:00.296Z,19.10
2017-11-07T08:09:28.002Z,18.48
2017-11-07T08:11:55.598Z,17.12
2017-11-07T08:14:23.190Z,20.27
2017-11-07T08:16:50.908Z,18.80
2017-11-07T08:19:19.233Z,19.05
2017-11-07T08:21:46.822Z,20.62
2017-11-07T08:24:14.402Z,21.35
2017-11-07T08:26:43.174Z,20.35
2017-11-07T08:29:10.927Z,19.62
2017-11-07T08:31:38.507Z,19.55
2017-11-07T08:34:06.156Z,20.27
2017-11-07T08:36:33.743Z,19.12
2017-11-07T08:39:02.096Z,17.17
2017-11-07T08:41:29.713Z,20.02
2017-11-07T08:43:57.285Z,20.58
2017-11-07T08:46:24.850Z,18.00
2017-11-07T08:48:52.435Z,18.95
2017-11-07T08:51:20.012Z,17.52
2017-11-07T08:53:48.348Z,18.25
2017-11-07T08:56:15.935Z,19.08
2017-11-07T08:58:43.520Z,20.23
2017-11-07T09:01:11.133Z,17.77
2017-11-07T09:03:38.739Z,19.70
2017-11-07T09:06:06.295Z,19.85
2017-11-07T09:08:33.853Z,17.58
2017-11-07T09:11:01.419Z,17.02
2017-11-07T09:13:29.002Z,16.10
2017-11-07T09:15:57.374Z,17.20
2017-11-07T09:18:24.983Z,16.45
2017-11-07T09:20:52.550Z,15.53
2017-11-07T09:23:20.265Z,11.97
2017-11-07T09:25:47.900Z,14.13
2017-11-07T09:28:15.497Z,13.00
2017-11-07T09:30:43.827Z,14.10
2017-11-07T09:33:11.410Z,13.77
2017-11-07T09:35:38.991Z,15.60
2017-11-07T09:38:07.340Z,14.00
2017-11-07T09:40:34.894Z,14.67
2017-11-07T09:43:02.482Z,15.20
2017-11-07T09:45:30.936Z,14.80
2017-11-07T09:47:58.514Z,14.70
2017-11-07T09:50:26.128Z,14.80
2017-11-07T09:52:54.450Z,17.60
2017-11-07T09:55:22.039Z,19.13
2017-11-07T09:57:49.662Z,15.03
2017-11-07T10:00:17.224Z,15.13
2017-11-07T10:02:44.816Z,14.80
2017-11-07T10:05:12.537Z,17.47
2017-11-07T10:07:40.153Z,15.00
2017-11-07T10:10:08.556Z,16.10
2017-11-07T10:12:36.921Z,14.40
2017-11-07T10:15:04.529Z,14.97
2017-11-07T10:17:32.094Z,15.07
2017-11-07T10:19:59.695Z,15.20
2017-11-07T10:22:27.384Z,14.10
2017-11-07T10:24:54.966Z,16.00
2017-11-07T10:27:22.536Z,15.27
2017-11-07T10:29:50.155Z,15.90
2017-11-07T10:32:18.502Z,14.70
2017-11-07T10:34:46.149Z,15.47
2017-11-07T10:37:13.700Z,16.40
2017-11-07T10:39:41.315Z,16.10
2017-11-07T10:42:08.865Z,15.13
2017-11-07T10:44:36.454Z,13.73
2017-11-07T10:47:04.019Z,13.77
2017-11-07T10:49:31.624Z,15.53
2017-11-07T10:51:59.202Z,17.00
2017-11-07T10:54:26.800Z,15.40
2017-11-07T10:56:54.387Z,15.97
2017-11-07T10:59:22.745Z,17.10
2017-11-07T11:01:50.334Z,15.47
2017-11-07T11:04:18.688Z,17.23
2017-11-07T11:06:46.275Z,16.27
2017-11-07T11:09:14.709Z,16.50
2017-11-07T11:11:42.350Z,17.83
2017-11-07T11:14:09.902Z,17.60
2017-11-07T11:16:37.471Z,19.20
2017-11-07T11:19:05.120Z,18.67
2017-11-07T11:21:32.772Z,19.60
2017-11-07T11:24:01.074Z,18.67
2017-11-07T11:26:28.676Z,19.23
2017-11-07T11:28:56.271Z,18.80
2017-11-07T11:31:23.869Z,20.30
2017-11-07T11:33:51.431Z,19.30
2017-11-07T11:36:19.019Z,20.43
2017-11-07T11:38:46.596Z,20.30
2017-11-07T11:41:14.155Z,21.07
2017-11-07T11:43:41.740Z,19.73
2017-11-07T11:46:09.337Z,21.73
2017-11-07T11:48:37.173Z,19.97
2017-11-07T11:51:04.734Z,22.80
2017-11-07T11:53:32.386Z,21.17
2017-11-07T11:55:59.931Z,21.53
2017-11-07T11:58:27.591Z,20.40
2017-11-07T12:00:55.347Z,22.33
2017-11-07T12:03:22.958Z,23.10
2017-11-07T12:05:50.546Z,22.60
2017-11-07T12:08:18.123Z,21.00
2017-11-07T12:10:45.714Z,21.80
2017-11-07T12:13:13.298Z,20.73
2017-11-07T12:15:41.651Z,21.70
2017-11-07T12:18:09.219Z,21.40
2017-11-07T12:20:36.839Z,23.20
2017-11-07T12:23:04.535Z,21.47
2017-11-07T12:25:32.103Z,23.53
2017-11-07T12:27:59.695Z,23.63
2017-11-07T12:30:27.407Z,21.80
2017-11-07T12:32:54.979Z,22.87
2017-11-07T12:35:22.557Z,22.30
2017-11-07T12:38:12.084Z,22.00
2017-11-07T12:40:39.663Z,22.90
2017-11-07T12:43:07.243Z,20.90
2017-11-07T12:45:34.862Z,25.27
2017-11-07T12:48:03.411Z,21.43
2017-11-07T12:50:42.914Z,21.20
2017-11-07T12:53:10.534Z,21.00
2017-11-07T12:55:39.072Z,25.07
2017-11-07T12:58:06.650Z,23.80
2017-11-07T13:00:34.243Z,22.90
2017-11-07T13:03:01.871Z,22.10
2017-11-07T13:05:29.539Z,22.17
2017-11-07T13:07:57.132Z,25.43
2017-11-07T13:10:24.744Z,22.43
2017-11-07T13:12:52.344Z,25.97
2017-11-07T13:15:19.922Z,23.03
2017-11-07T13:17:47.669Z,22.90
2017-11-07T13:20:15.257Z,23.10
2017-11-07T13:22:42.907Z,22.67
2017-11-07T13:25:10.503Z,21.27
2017-11-07T13:27:38.076Z,21.90
2017-11-07T13:30:05.695Z,23.13
2017-11-07T13:32:33.263Z,22.13
2017-11-07T13:35:00.953Z,20.90
2017-11-07T13:37:29.317Z,23.87
2017-11-07T13:39:56.950Z,22.57
2017-11-07T13:42:24.538Z,21.70
2017-11-07T13:44:52.151Z,21.17
2017-11-07T13:47:19.796Z,20.10
2017-11-07T13:49:47.446Z,20.40
2017-11-07T13:52:15.841Z,21.50
2017-11-07T13:54:45.008Z,23.17
2017-11-07T13:57:12.575Z,21.17
2017-11-07T13:59:40.948Z,21.42
2017-11-07T14:02:08.531Z,19.93
2017-11-07T14:04:36.922Z,22.45
2017-11-07T14:07:04.658Z,21.42
2017-11-07T14:09:32.251Z,24.30
2017-11-07T14:11:59.851Z,24.00
2017-11-07T14:14:27.442Z,24.50
2017-11-07T14:16:55.818Z,25.10
2017-11-07T14:19:23.419Z,23.60
2017-11-07T14:21:51.003Z,23.95
2017-11-07T14:24:18.588Z,22.73
2017-11-07T14:26:46.154Z,25.23
2017-11-07T14:29:14.034Z,23.45
2017-11-07T14:31:41.607Z,24.90
2017-11-07T14:34:10.080Z,24.08
2017-11-07T14:36:37.881Z,25.35
2017-11-07T14:39:05.439Z,24.12
2017-11-07T14:41:33.439Z,24.20
2017-11-07T14:44:01.125Z,24.35
2017-11-07T14:46:28.873Z,26.10
2017-11-07T14:48:56.475Z,24.17
2017-11-07T14:51:24.083Z,26.55
2017-11-07T14:53:51.737Z,25.27
2017-11-07T14:56:19.336Z,25.00
2017-11-07T14:58:46.928Z,22.65
2017-11-07T15:01:15.290Z,23.92
2017-11-07T15:03:42.915Z,25.12
2017-11-07T15:06:10.532Z,25.85
2017-11-07T15:08:38.172Z,25.40
2017-11-07T15:11:05.767Z,24.40
2017-11-07T15:13:33.339Z,24.35
2017-11-07T15:16:01.723Z,25.20
2017-11-07T15:18:30.095Z,22.48
2017-11-07T15:20:57.672Z,24.73
2017-11-07T15:23:26.229Z,24.02
2017-11-07T15:25:53.844Z,25.02
2017-11-07T15:28:21.465Z,22.73
2017-11-07T15:30:49.068Z,23.60
2017-11-07T15:33:16.655Z,27.02
2017-11-07T15:35:44.275Z,24.77
2017-11-07T15:38:12.619Z,24.37
2017-11-07T15:40:40.276Z,24.02
2017-11-07T15:43:07.913Z,21.83
2017-11-07T15:45:35.553Z,23.42
2017-11-07T15:48:03.135Z,22.85
2017-11-07T15:50:30.773Z,22.75
2017-11-07T15:52:59.122Z,24.00
2017-11-07T15:55:27.576Z,25.42
2017-11-07T15:57:55.188Z,21.92
2017-11-07T16:00:23.563Z,25.67
2017-11-07T16:02:51.162Z,26.35
2017-11-07T16:05:18.747Z,27.48
2017-11-07T16:07:46.344Z,25.77
2017-11-07T16:10:13.947Z,24.77
2017-11-07T16:12:41.520Z,23.77
2017-11-07T16:15:09.107Z,23.73
2017-11-07T16:17:36.674Z,24.80
2017-11-07T16:20:04.294Z,25.27
2017-11-07T16:22:31.886Z,26.05
2017-11-07T16:24:59.496Z,25.17
2017-11-07T16:27:27.887Z,25.55
2017-11-07T16:29:55.480Z,25.12
2017-11-07T16:32:23.057Z,21.90
2017-11-07T16:34:50.634Z,26.92
2017-11-07T16:37:19.004Z,26.55
2017-11-07T16:39:46.974Z,25.27
2017-11-07T16:42:14.713Z,25.02
2017-11-07T16:44:42.450Z,26.20
2017-11-07T16:47:10.325Z,26.25
2017-11-07T16:49:37.941Z,25.02
2017-11-07T16:52:05.533Z,24.83
2017-11-07T16:54:33.868Z,24.58
2017-11-07T16:57:01.486Z,22.05
2017-11-07T16:59:29.195Z,25.42
2017-11-07T17:01:56.823Z,24.55
2017-11-07T17:04:24.533Z,28.98
2017-11-07T17:06:52.150Z,25.85
2017-11-07T17:09:19.720Z,26.17
2017-11-07T17:11:48.131Z,25.55
2017-11-07T17:14:15.719Z,27.70
2017-11-07T17:16:43.379Z,25.98
2017-11-07T17:19:10.971Z,27.37
2017-11-07T17:21:38.539Z,29.95
2017-11-07T17:24:06.122Z,28.85
2017-11-07T17:26:34.489Z,26.50
2017-11-07T17:29:02.844Z,25.12
2017-11-07T17:31:30.432Z,27.10
2017-11-07T17:33:58.770Z,25.48
2017-11-07T17:36:26.432Z,24.73
2017-11-07T17:38:54.014Z,25.15
2017-11-07T17:41:21.598Z,22.60
2017-11-07T17:43:49.972Z,25.48
2017-11-07T17:46:17.584Z,25.00
2017-11-07T17:48:45.371Z,28.20
2017-11-07T17:51:13.740Z,26.10
2017-11-07T17:53:41.340Z,26.33
2017-11-07T17:56:08.968Z,27.05
2017-11-07T17:58:36.563Z,27.73
2017-11-07T18:01:04.250Z,26.12
2017-11-07T18:03:32.670Z,27.20
2017-11-07T18:06:00.264Z,29.00
2017-11-07T18:08:27.831Z,62.42
2017-11-07T18:10:55.487Z,60.35
2017-11-07T18:13:23.958Z,57.08
2017-11-07T18:15:52.287Z,41.63
2017-11-07T18:18:19.858Z,48.67
2017-11-07T18:20:48.295Z,53.95
2017-11-07T18:23:16.805Z,48.80
2017-11-07T18:25:44.413Z,44.00
2017-11-07T18:28:12.030Z,37.03
2017-11-07T18:30:39.671Z,29.12
2017-11-07T18:33:07.272Z,30.20
2017-11-07T18:35:34.874Z,31.73
2017-11-07T18:38:03.281Z,29.87
2017-11-07T18:40:30.914Z,27.30
2017-11-07T18:42:58.529Z,26.50
2017-11-07T18:45:26.092Z,28.40
2017-11-07T18:47:53.731Z,27.92
2017-11-07T18:50:22.115Z,29.05
2017-11-07T18:52:49.742Z,31.90
2017-11-07T18:55:17.482Z,30.35
2017-11-07T18:57:45.064Z,27.85
2017-11-07T19:00:12.917Z,28.52
2017-11-07T19:02:40.738Z,31.20
2017-11-07T19:05:08.342Z,28.85
2017-11-07T19:07:35.966Z,29.35
2017-11-07T19:10:03.568Z,29.87
2017-11-07T19:12:31.149Z,26.85
2017-11-07T19:14:58.759Z,26.23
2017-11-07T19:17:27.871Z,26.73
2017-11-07T19:19:55.817Z,26.42
2017-11-07T19:22:24.161Z,24.48
2017-11-07T19:24:51.764Z,23.20
2017-11-07T19:27:20.184Z,22.52
2017-11-07T19:29:47.821Z,23.17
2017-11-07T19:32:15.736Z,23.95
2017-11-07T19:34:43.325Z,21.65
2017-11-07T19:37:11.677Z,21.52
2017-11-07T19:39:39.516Z,20.10
2017-11-07T19:42:07.148Z,21.33
2017-11-07T19:44:35.487Z,21.58
2017-11-07T19:47:03.083Z,18.98
2017-11-07T19:49:30.785Z,20.33
2017-11-07T19:51:58.520Z,19.90
2017-11-07T19:54:26.916Z,20.55
2017-11-07T19:56:54.521Z,22.27
2017-11-07T19:59:22.136Z,21.45
2017-11-07T20:01:49.744Z,20.73
2017-11-07T20:04:17.968Z,20.73
2017-11-07T20:06:46.316Z,21.48
2017-11-07T20:09:13.898Z,24.90
2017-11-07T20:11:42.282Z,23.27
2017-11-07T20:14:09.881Z,24.77
2017-11-07T20:16:37.546Z,22.35
2017-11-07T20:19:05.133Z,20.92
2017-11-07T20:21:32.698Z,23.70
2017-11-07T20:24:01.187Z,23.95
2017-11-07T20:26:29.131Z,24.92
2017-11-07T20:28:56.757Z,26.35
2017-11-07T20:31:25.135Z,30.20
2017-11-07T20:33:53.508Z,34.28
2017-11-07T20:36:21.160Z,28.73
2017-11-07T20:38:49.523Z,31.98
2017-11-07T20:41:17.183Z,23.12
2017-11-07T20:43:44.763Z,29.10
2017-11-07T20:46:12.380Z,29.17
2017-11-07T20:48:40.094Z,31.83
2017-11-07T20:51:07.818Z,28.17
2017-11-07T20:53:35.525Z,23.87
2017-11-07T20:56:03.125Z,26.00
2017-11-07T20:58:32.241Z,23.92
2017-11-07T21:00:59.819Z,24.70
2017-11-07T21:03:27.404Z,24.40
2017-11-07T21:05:55.079Z,24.87
2017-11-07T21:08:22.648Z,25.40
2017-11-07T21:10:50.285Z,27.62
2017-11-07T21:13:19.069Z,27.75
2017-11-07T21:15:47.445Z,25.37
2017-11-07T21:18:16.649Z,26.65
2017-11-07T21:20:46.040Z,27.00
2017-11-07T21:23:13.647Z,27.70
2017-11-07T21:25:42.291Z,25.37
2017-11-07T21:28:09.880Z,30.88
2017-11-07T21:30:38.225Z,34.30
2017-11-07T21:33:05.825Z,32.97
2017-11-07T21:35:33.462Z,32.80
2017-11-07T21:38:01.836Z,29.77
2017-11-07T21:40:29.440Z,32.60
2017-11-07T21:42:57.073Z,30.58
2017-11-07T21:45:25.754Z,30.33
2017-11-07T21:47:54.111Z,28.33
2017-11-07T21:50:21.695Z,28.25
2017-11-07T21:52:49.284Z,24.80
2017-11-07T21:55:16.887Z,27.67
2017-11-07T21:57:45.264Z,26.62
2017-11-07T22:00:13.887Z,25.20
2017-11-07T22:02:41.683Z,25.90
2017-11-07T22:05:09.278Z,22.48
2017-11-07T22:07:37.054Z,25.00
2017-11-07T22:10:04.749Z,22.73
2017-11-07T22:12:32.397Z,23.70
2017-11-07T22:15:00.221Z,20.62
2017-11-07T22:17:28.688Z,22.83
2017-11-07T22:19:56.342Z,22.40
2017-11-07T22:22:24.032Z,21.98
2017-11-07T22:24:51.650Z,23.90
2017-11-07T22:27:19.338Z,23.00
2017-11-07T22:29:46.979Z,21.98
2017-11-07T22:32:14.694Z,20.37
2017-11-07T22:34:42.378Z,24.12
2017-11-07T22:37:10.802Z,23.20
2017-11-07T22:39:40.620Z,22.02
2017-11-07T22:42:08.771Z,23.75
2017-11-07T22:44:36.530Z,23.65
2017-11-07T22:47:04.166Z,24.15
2017-11-07T22:49:32.069Z,25.05
2017-11-07T22:51:59.729Z,23.27
2017-11-07T22:54:28.270Z,21.90
2017-11-07T22:56:55.937Z,23.52
2017-11-07T22:59:24.380Z,23.45
2017-11-07T23:01:52.169Z,22.20
2017-11-07T23:04:19.783Z,23.23
2017-11-07T23:06:48.823Z,22.10
2017-11-07T23:09:16.414Z,23.25
2017-11-07T23:11:44.000Z,25.40
2017-11-07T23:14:11.567Z,25.62
2017-11-07T23:16:39.149Z,27.15
2017-11-07T23:19:06.813Z,27.20
2017-11-07T23:21:34.398Z,23.33
2017-11-07T23:24:02.052Z,24.05
2017-11-07T23:26:29.814Z,23.90
2017-11-07T23:28:57.427Z,24.10
2017-11-07T23:31:25.084Z,22.85
2017-11-07T23:33:52.737Z,24.02
2017-11-07T23:36:20.311Z,23.20
2017-11-07T23:38:48.642Z,23.73
2017-11-07T23:41:16.245Z,26.60
2017-11-07T23:43:43.909Z,24.63
2017-11-07T23:46:11.493Z,24.77
2017-11-07T23:48:39.861Z,23.23
2017-11-07T23:51:07.448Z,23.38
2017-11-07T23:53:35.047Z,24.05
2017-11-07T23:56:02.625Z,21.92
2017-11-07T23:58:30.343Z,23.65
